Time;durP1;ratioP1;P1;durP2;ratioP2;P2;SDS_P1;SDS_P2;PMS_P1;PMS_P2;Temp;Humidity;BMP_temperature;BMP_pressure;BME280_temperature;BME280_humidity;BME280_pressure;Samples;Min_cycle;Max_cycle;Signal;HPM_P1;HPM_P2
2023/03/20 00:01:54;;;;;;;32.05;16.85;;;;;;;9.32;100.00;100805.13;6288113;28;20044;-87
2023/03/20 00:04:56;;;;;;;34.78;18.85;;;;;;;9.31;100.00;100807.81;6305257;28;20232;-87
2023/03/20 00:07:58;;;;;;;30.23;17.30;;;;;;;9.20;100.00;100811.94;6271961;28;20039;-87
2023/03/20 00:11:00;;;;;;;33.05;17.48;;;;;;;9.15;100.00;100810.63;6299819;28;20124;-87
2023/03/20 00:14:05;;;;;;;35.72;19.30;;;;;;;9.15;100.00;100811.44;6302056;28;20039;-87
2023/03/20 00:17:10;;;;;;;39.30;18.98;;;;;;;9.08;100.00;100820.53;6289344;28;20418;-87
2023/03/20 00:20:15;;;;;;;32.45;17.77;;;;;;;9.01;100.00;100814.94;6291752;28;20074;-87
2023/03/20 00:23:17;;;;;;;37.00;19.23;;;;;;;8.91;100.00;100819.09;6285784;28;20040;-87
2023/03/20 00:26:20;;;;;;;40.72;19.63;;;;;;;8.97;100.00;100823.03;6286774;28;20502;-87
2023/03/20 00:29:25;;;;;;;35.10;19.10;;;;;;;8.97;100.00;100816.09;6284921;28;20074;-87
2023/03/20 00:32:26;;;;;;;36.63;17.67;;;;;;;8.92;100.00;100827.66;6283711;28;20768;-87
2023/03/20 00:35:31;;;;;;;38.25;18.38;;;;;;;8.92;100.00;100830.22;6285398;28;20063;-87
2023/03/20 00:38:33;;;;;;;37.05;18.10;;;;;;;8.85;100.00;100827.25;6285105;28;20477;-87
2023/03/20 00:41:47;;;;;;;37.38;17.38;;;;;;;8.94;100.00;100818.88;6282631;28;20048;-87
2023/03/20 00:44:52;;;;;;;34.30;17.35;;;;;;;8.86;100.00;100820.34;6282414;28;20186;-87
2023/03/20 00:47:57;;;;;;;36.83;18.33;;;;;;;8.99;100.00;100813.41;6289494;28;20512;-87
2023/03/20 00:50:59;;;;;;;37.53;17.50;;;;;;;8.87;100.00;100809.91;6288255;28;20037;-87
2023/03/20 00:54:01;;;;;;;38.63;18.27;;;;;;;8.88;100.00;100805.56;6292404;28;20051;-87
2023/03/20 00:57:14;;;;;;;37.22;17.65;;;;;;;8.91;100.00;100813.09;6287950;28;20048;-87
2023/03/20 01:00:25;;;;;;;34.30;17.80;;;;;;;8.98;100.00;100806.59;6279472;28;20056;-87
2023/03/20 01:03:28;;;;;;;36.30;18.15;;;;;;;9.03;100.00;100807.94;6277035;28;20049;-87
2023/03/20 01:06:31;;;;;;;36.47;17.80;;;;;;;8.96;100.00;100811.84;6306430;28;20096;-87
2023/03/20 01:09:33;;;;;;;35.85;17.27;;;;;;;8.91;100.00;100806.19;6289571;28;20410;-87
2023/03/20 01:12:35;;;;;;;40.60;18.80;;;;;;;8.98;100.00;100806.59;6282272;28;20139;-87
2023/03/20 01:15:36;;;;;;;39.58;20.25;;;;;;;8.86;100.00;100810.81;6294700;28;20542;-87
2023/03/20 01:18:38;;;;;;;40.63;17.38;;;;;;;8.91;100.00;100813.09;6290187;28;20032;-87
2023/03/20 01:21:41;;;;;;;43.90;19.90;;;;;;;8.99;100.00;100811.66;6291144;28;20048;-87
2023/03/20 01:24:44;;;;;;;40.70;18.55;;;;;;;8.99;100.00;100811.66;6290756;28;20048;-87
2023/03/20 01:27:50;;;;;;;46.08;19.23;;;;;;;8.98;100.00;100806.59;6287950;28;20041;-87
2023/03/20 01:30:52;;;;;;;44.10;19.27;;;;;;;8.91;100.00;100813.91;6287733;28;20041;-87
2023/03/20 01:33:54;;;;;;;41.17;18.65;;;;;;;8.86;100.00;100823.72;6285595;28;20107;-88
2023/03/20 01:37:00;;;;;;;42.75;19.63;;;;;;;8.88;100.00;100824.47;6288351;28;20075;-87
2023/03/20 01:40:07;;;;;;;41.40;19.75;;;;;;;8.94;100.00;100825.81;6286867;28;20219;-87
2023/03/20 01:43:14;;;;;;;47.03;21.38;;;;;;;8.93;100.00;100831.91;6285892;28;20052;-87
2023/03/20 01:46:30;;;;;;;44.58;20.60;;;;;;;8.93;100.00;100839.66;6284554;28;20392;-88
2023/03/20 01:50:25;;;;;;;45.15;19.83;;;;;;;8.88;100.00;100845.13;6287485;28;20620;-88
2023/03/20 01:53:32;;;;;;;47.58;19.88;;;;;;;8.99;100.00;100834.91;6292848;28;20067;-88
2023/03/20 01:56:40;;;;;;;50.10;19.42;;;;;;;9.12;100.00;100829.75;6296570;28;20045;-87
2023/03/20 01:59:44;;;;;;;44.35;18.95;;;;;;;9.12;100.00;100832.31;6287701;28;20055;-87
2023/03/20 02:02:47;;;;;;;40.55;17.10;;;;;;;8.99;100.00;100847.81;6292276;28;20072;-87
2023/03/20 02:06:07;;;;;;;;;;;;;;;8.93;100.00;100843.06;6285292;28;20410;-87
2023/03/20 02:09:28;;;;;;;42.72;17.73;;;;;;;8.92;100.00;100849.16;6286697;28;19925;-87
2023/03/20 02:12:32;;;;;;;37.17;17.33;;;;;;;8.88;100.00;100850.28;6282567;28;20127;-87
2023/03/20 02:15:51;;;;;;;35.30;15.50;;;;;;;8.89;100.00;100849.34;6285531;28;20577;-88
2023/03/20 02:19:19;;;;;;;34.15;15.15;;;;;;;8.89;100.00;100864.00;6295482;28;20948;-87
2023/03/20 02:22:46;;;;;;;32.70;14.80;;;;;;;8.78;100.00;100862.16;6306915;28;20366;-87
2023/03/20 02:26:30;;;;;;;36.83;15.23;;;;;;;8.75;100.00;100855.44;6286727;28;20044;-87
2023/03/20 02:29:50;;;;;;;33.55;13.70;;;;;;;8.66;100.00;100861.19;6285262;28;20454;-87
2023/03/20 02:33:14;;;;;;;27.70;13.33;;;;;;;8.76;100.00;100854.50;6284607;28;20048;-87
2023/03/20 02:37:00;;;;;;;32.25;13.88;;;;;;;8.60;100.00;100846.13;6274913;28;20045;-87
2023/03/20 02:40:11;;;;;;;32.65;13.25;;;;;;;8.54;100.00;100839.59;6286020;28;20079;-87
2023/03/20 02:43:31;;;;;;;29.45;12.18;;;;;;;8.52;100.00;100833.72;6285896;28;20474;-87
2023/03/20 02:47:12;;;;;;;32.72;12.85;;;;;;;8.46;100.00;100821.22;6286275;28;20044;-87
2023/03/20 02:50:38;;;;;;;31.58;12.40;;;;;;;8.21;100.00;100821.94;6157777;28;20042;-87
2023/03/20 02:53:53;;;;;;;28.40;13.57;;;;;;;8.10;100.00;100824.38;6181020;28;20602;-87
2023/03/20 02:57:19;;;;;;;28.40;11.95;;;;;;;7.97;100.00;100820.03;6168639;28;20122;-87
2023/03/20 03:00:54;;;;;;;26.98;12.18;;;;;;;7.92;100.00;100818.63;6182476;28;20674;-87
2023/03/20 03:04:02;;;;;;;27.83;11.90;;;;;;;7.82;100.00;100815.00;6098846;29;20043;-87
2023/03/20 03:07:08;;;;;;;31.10;13.07;;;;;;;7.77;100.00;100818.66;6101214;29;20544;-87
2023/03/20 03:10:19;;;;;;;30.67;13.05;;;;;;;7.73;100.00;100829.28;6090792;29;20288;-87
2023/03/20 03:13:28;;;;;;;27.13;12.32;;;;;;;7.69;100.00;100831.22;6104525;29;20172;-87
2023/03/20 03:16:37;;;;;;;29.40;11.77;;;;;;;7.82;100.00;100826.13;6094800;29;20561;-87
2023/03/20 03:19:45;;;;;;;32.25;12.85;;;;;;;7.77;100.00;100818.66;6105419;29;20800;-87
2023/03/20 03:22:48;;;;;;;31.70;12.77;;;;;;;7.69;100.00;100823.47;6094181;29;20620;-87
2023/03/20 03:25:52;;;;;;;26.70;11.23;;;;;;;7.61;100.00;100814.59;6111509;28;20511;-87
2023/03/20 03:28:58;;;;;;;29.85;13.88;;;;;;;7.50;100.00;100821.22;6188776;28;20136;-87
2023/03/20 03:32:02;;;;;;;29.15;12.15;;;;;;;7.45;100.00;100822.41;6206180;28;20524;-87
2023/03/20 03:35:05;;;;;;;30.73;13.18;;;;;;;7.37;100.00;100824.63;6204795;28;20075;-87
2023/03/20 03:38:15;;;;;;;30.67;12.65;;;;;;;7.27;100.00;100834.66;6200937;28;20052;-87
2023/03/20 03:41:41;;;;;;;28.80;12.18;;;;;;;7.22;100.00;100827.22;6284272;28;20434;-87
2023/03/20 03:44:53;;;;;;;31.80;13.85;;;;;;;7.25;100.00;100824.44;6295545;28;20147;-87
2023/03/20 03:48:01;;;;;;;26.95;12.48;;;;;;;7.34;100.00;100826.47;6280643;28;20775;-87
2023/03/20 03:51:15;;;;;;;31.38;12.98;;;;;;;7.34;100.00;100834.19;6284142;28;20217;-87
2023/03/20 03:54:52;;;;;;;29.00;13.00;;;;;;;7.44;100.00;100838.81;6283238;28;20418;-87
2023/03/20 03:58:11;;;;;;;29.67;13.00;;;;;;;7.51;100.00;100832.34;6286562;28;20486;-87
2023/03/20 04:01:15;;;;;;;29.95;12.85;;;;;;;7.61;100.00;100835.19;6277614;28;20041;-87
2023/03/20 04:04:19;;;;;;;30.33;12.57;;;;;;;7.67;100.00;100834.81;6271026;28;20106;-87
2023/03/20 04:07:26;;;;;;;33.03;12.88;;;;;;;7.75;100.00;100840.31;6260811;28;20037;-87
2023/03/20 04:10:28;;;;;;;30.48;13.35;;;;;;;7.83;100.00;100845.00;6285292;28;20040;-87
2023/03/20 04:13:30;;;;;;;30.05;13.32;;;;;;;7.89;100.00;100842.03;6289158;28;20421;-87
2023/03/20 04:16:32;;;;;;;28.67;12.35;;;;;;;7.88;100.00;100836.06;6271058;28;20186;-87
2023/03/20 04:19:34;;;;;;;28.30;12.88;;;;;;;7.89;100.00;100834.31;6300834;28;20063;-87
2023/03/20 04:22:36;;;;;;;28.15;12.82;;;;;;;7.94;100.00;100838.25;6270763;28;20052;-87
2023/03/20 04:25:43;;;;;;;26.05;11.50;;;;;;;7.92;100.00;100831.53;6285344;28;20454;-87
2023/03/20 04:28:45;;;;;;;27.60;12.00;;;;;;;7.95;100.00;100828.78;6279068;28;20568;-87
2023/03/20 04:32:16;;;;;;;;;;;;;;;7.93;100.00;100828.88;6232540;28;20049;-87
2023/03/20 04:35:42;;;;;;;32.67;13.23;;;;;;;7.98;100.00;100826.81;6217595;28;20343;-87
2023/03/20 04:38:46;;;;;;;29.80;12.40;;;;;;;7.94;100.00;100822.78;6212911;28;20052;-87
2023/03/20 04:41:48;;;;;;;29.55;13.63;;;;;;;7.92;100.00;100809.16;6231730;28;20072;-87
2023/03/20 04:44:50;;;;;;;29.95;13.02;;;;;;;7.93;100.00;100808.25;6231239;28;20197;-87
2023/03/20 04:47:51;;;;;;;27.95;12.48;;;;;;;7.95;100.00;100803.81;6231978;28;20071;-87
2023/03/20 04:50:56;;;;;;;29.80;12.50;;;;;;;7.99;100.00;100807.84;6232534;28;20045;-87
2023/03/20 04:54:12;;;;;;;31.67;14.15;;;;;;;8.06;100.00;100808.28;6216084;28;20057;-87
2023/03/20 04:57:16;;;;;;;31.35;14.35;;;;;;;7.97;100.00;100799.41;6231887;28;20081;-87
2023/03/20 05:00:18;;;;;;;32.40;13.10;;;;;;;7.99;100.00;100800.09;6215646;28;20547;-87
2023/03/20 05:03:20;;;;;;;35.13;13.88;;;;;;;8.07;100.00;100807.34;6221754;28;20506;-87
2023/03/20 05:06:26;;;;;;;33.70;13.75;;;;;;;8.07;100.00;100798.78;6215258;28;20527;-87
2023/03/20 05:09:27;;;;;;;27.38;12.70;;;;;;;8.10;100.00;100807.19;6271858;28;20174;-87
2023/03/20 05:12:33;;;;;;;33.47;13.68;;;;;;;8.13;100.00;100804.38;6289913;28;20506;-87
2023/03/20 05:15:44;;;;;;;31.17;13.45;;;;;;;8.14;100.00;100797.47;6284570;28;20052;-87
2023/03/20 05:19:00;;;;;;;31.52;14.05;;;;;;;8.21;100.00;100796.16;6284070;28;20541;-87
2023/03/20 05:22:22;;;;;;;31.70;13.20;;;;;;;8.25;100.00;100799.34;6265747;28;20060;-87
2023/03/20 05:25:46;;;;;;;31.38;14.05;;;;;;;8.28;100.00;100792.25;6287521;28;20061;-87
2023/03/20 05:29:06;;;;;;;37.42;14.13;;;;;;;8.31;100.00;100789.47;6284248;28;20127;-87
2023/03/20 05:32:37;;;;;;;;;;;;;;;8.35;100.00;100796.09;6246226;28;20266;-87
2023/03/20 05:35:45;;;;;;;29.60;13.75;;;;;;;8.33;100.00;100789.38;6212796;28;19925;-87
2023/03/20 05:38:55;;;;;;;31.15;13.85;;;;;;;8.37;100.00;100795.97;6241724;28;20049;-87
2023/03/20 05:42:24;;;;;;;29.38;13.35;;;;;;;8.38;100.00;100793.31;6219820;28;20057;-87
2023/03/20 05:45:41;;;;;;;32.92;14.60;;;;;;;8.46;100.00;100803.16;6219655;28;20095;-87
2023/03/20 05:49:06;;;;;;;38.92;14.45;;;;;;;8.49;100.00;100804.72;6229253;28;20537;-87
2023/03/20 05:52:37;;;;;;;33.47;13.77;;;;;;;8.49;100.00;100802.94;6155323;28;20109;-87
2023/03/20 05:55:50;;;;;;;34.08;15.02;;;;;;;8.59;100.00;100795.44;6135881;28;20473;-87
2023/03/20 05:59:11;;;;;;;30.95;15.02;;;;;;;8.53;100.00;100795.84;6163252;28;20574;-87
2023/03/20 06:02:23;;;;;;;36.38;15.60;;;;;;;8.61;100.00;100793.56;6163085;28;20141;-87
2023/03/20 06:05:34;;;;;;;36.07;15.23;;;;;;;8.67;100.00;100802.66;6163389;28;20096;-87
2023/03/20 06:08:36;;;;;;;35.78;14.52;;;;;;;8.67;100.00;100805.25;6163854;28;20055;-87
2023/03/20 06:11:39;;;;;;;31.42;13.90;;;;;;;8.65;100.00;100802.78;6165348;28;20043;-87
2023/03/20 06:14:41;;;;;;;33.35;14.98;;;;;;;8.76;100.00;100808.03;6163257;28;20050;-87
2023/03/20 06:17:44;;;;;;;31.88;14.85;;;;;;;8.69;100.00;100801.63;6162900;28;20047;-87
2023/03/20 06:20:55;;;;;;;35.85;15.25;;;;;;;8.66;100.00;100806.19;6159375;28;20484;-87
2023/03/20 06:23:58;;;;;;;;;;;;;;;8.75;100.00;100810.75;6157932;28;20570;-87
2023/03/20 06:27:02;;;;;;;33.47;16.10;;;;;;;8.68;100.00;100812.06;6154881;28;19980;-87
2023/03/20 06:30:04;;;;;;;38.30;16.52;;;;;;;8.74;100.00;100825.38;6269523;28;20045;-87
2023/03/20 06:33:09;;;;;;;38.05;18.08;;;;;;;8.67;100.00;100820.72;6277611;28;20067;-87
2023/03/20 06:36:24;;;;;;;37.35;17.10;;;;;;;8.61;100.00;100824.53;6277762;28;20049;-87
2023/03/20 06:39:32;;;;;;;36.75;17.17;;;;;;;8.60;100.00;100826.31;6286966;28;20048;-87
2023/03/20 06:42:34;;;;;;;34.55;16.02;;;;;;;8.62;100.00;100831.34;6284639;28;20563;-87
2023/03/20 06:45:38;;;;;;;41.83;18.90;;;;;;;8.61;100.00;100845.19;6291155;28;20059;-87
2023/03/20 06:48:50;;;;;;;36.92;16.35;;;;;;;8.59;100.00;100837.53;6282442;28;20092;-87
2023/03/20 06:51:54;;;;;;;34.58;16.10;;;;;;;8.62;100.00;100834.78;6286519;28;20510;-87
2023/03/20 06:54:58;;;;;;;37.22;16.58;;;;;;;8.66;100.00;100839.72;6286653;28;20052;-87
2023/03/20 06:58:00;;;;;;;32.33;15.43;;;;;;;8.65;100.00;100845.81;6285726;28;20142;-87
2023/03/20 07:01:18;;;;;;;33.97;14.98;;;;;;;8.68;100.00;100841.28;6287413;28;20056;-87
2023/03/20 07:04:21;;;;;;;30.23;12.73;;;;;;;8.70;100.00;100836.84;6282743;28;20041;-87
2023/03/20 07:07:27;;;;;;;26.67;12.63;;;;;;;8.68;100.00;100841.28;6268862;28;20416;-87
2023/03/20 07:10:29;;;;;;;29.95;12.32;;;;;;;8.72;100.00;100841.88;6290910;28;20467;-87
2023/03/20 07:13:32;;;;;;;26.45;12.77;;;;;;;8.77;100.00;100845.84;6280609;28;20430;-87
2023/03/20 07:16:41;;;;;;;29.67;13.20;;;;;;;8.77;100.00;100839.81;6290604;28;20060;-87
2023/03/20 07:19:43;;;;;;;25.88;12.30;;;;;;;8.80;100.00;100835.31;6286426;28;20784;-87
2023/03/20 07:22:46;;;;;;;28.95;13.05;;;;;;;9.08;100.00;100830.03;6268077;28;20051;-87
2023/03/20 07:25:56;;;;;;;26.23;12.57;;;;;;;9.13;100.00;100839.13;6294058;28;20059;-87
2023/03/20 07:28:58;;;;;;;27.75;12.93;;;;;;;9.13;100.00;100841.72;6288770;28;20588;-87
2023/03/20 07:32:01;;;;;;;25.42;12.05;;;;;;;9.12;100.00;100837.47;6291959;28;20486;-87
2023/03/20 07:35:09;;;;;;;23.25;12.48;;;;;;;9.17;100.00;100848.31;6302756;28;20064;-87
2023/03/20 07:38:14;;;;;;;24.73;11.77;;;;;;;9.18;100.00;100857.72;6280989;28;20052;-87
2023/03/20 07:41:25;;;;;;;28.85;11.98;;;;;;;9.11;100.00;100851.31;6278042;28;20052;-87
2023/03/20 07:44:35;;;;;;;25.17;11.13;;;;;;;9.35;100.00;100860.91;6285765;28;20067;-87
2023/03/20 07:47:42;;;;;;;20.42;9.93;;;;;;;9.36;100.00;100875.47;6293850;28;20102;-87
2023/03/20 07:50:44;;;;;;;19.73;9.48;;;;;;;9.35;100.00;100864.31;6287707;28;20178;-87
2023/03/20 07:53:46;;;;;;;18.08;9.05;;;;;;;9.42;100.00;100865.56;6293621;28;20059;-87
2023/03/20 07:56:49;;;;;;;18.48;9.20;;;;;;;9.35;100.00;100866.91;6268840;28;20055;-87
2023/03/20 07:59:51;;;;;;;19.20;9.32;;;;;;;9.46;100.00;100866.16;6272011;28;20417;-87
2023/03/20 08:02:52;;;;;;;17.83;9.23;;;;;;;9.64;100.00;100867.50;6297273;28;20638;-87
2023/03/20 08:05:55;;;;;;;18.27;8.90;;;;;;;9.84;100.00;100873.84;6284114;28;20037;-87
2023/03/20 08:08:57;;;;;;;18.90;9.45;;;;;;;9.79;100.00;100865.59;6285374;28;20251;-87
2023/03/20 08:11:59;;;;;;;18.02;9.70;;;;;;;9.75;100.00;100871.09;6287894;28;20037;-87
2023/03/20 08:15:01;;;;;;;20.13;9.80;;;;;;;9.69;100.00;100875.75;6286211;28;20044;-87
2023/03/20 08:18:03;;;;;;;19.77;10.80;;;;;;;9.67;100.00;100877.59;6285263;28;20049;-87
2023/03/20 08:21:06;;;;;;;23.75;10.73;;;;;;;9.70;100.00;100873.97;6294439;28;20047;-87
2023/03/20 08:24:08;;;;;;;19.90;11.25;;;;;;;9.90;100.00;100870.81;6285480;28;20051;-87
2023/03/20 08:27:09;;;;;;;18.55;10.80;;;;;;;9.93;100.00;100869.78;6294224;28;20040;-87
2023/03/20 08:30:12;;;;;;;18.73;10.10;;;;;;;9.88;100.00;100870.09;6296858;28;20047;-87
2023/03/20 08:33:16;;;;;;;20.95;10.40;;;;;;;10.07;100.00;100872.22;6294665;28;20052;-87
2023/03/20 08:36:24;;;;;;;22.13;11.43;;;;;;;10.14;100.00;100865.66;6285615;28;20047;-87
2023/03/20 08:39:25;;;;;;;19.55;9.40;;;;;;;10.24;100.00;100880.53;6296058;28;20051;-88
2023/03/20 08:42:27;;;;;;;17.52;9.52;;;;;;;10.32;100.00;100873.06;6294947;28;20078;-88
2023/03/20 08:45:29;;;;;;;16.20;9.30;;;;;;;10.41;100.00;100881.91;6296837;28;20123;-87
2023/03/20 08:48:31;;;;;;;16.25;8.65;;;;;;;10.27;100.00;100883.72;6284572;28;20040;-88
2023/03/20 08:51:33;;;;;;;17.85;9.48;;;;;;;10.04;100.00;100892.31;6300526;28;20149;-88
2023/03/20 08:54:35;;;;;;;15.68;9.20;;;;;;;9.78;100.00;100900.13;6299105;28;20079;-88
2023/03/20 08:57:37;;;;;;;16.73;8.88;;;;;;;9.75;100.00;100882.25;6294099;28;20049;-87
2023/03/20 09:00:40;;;;;;;19.05;10.20;;;;;;;9.80;100.00;100887.91;6291327;28;20383;-88
2023/03/20 09:03:43;;;;;;;19.88;10.55;;;;;;;9.87;100.00;100890.91;6291982;28;20216;-88
2023/03/20 09:06:44;;;;;;;19.73;10.35;;;;;;;9.80;100.00;100882.75;6288694;28;20048;-88
2023/03/20 09:09:46;;;;;;;18.98;10.23;;;;;;;9.81;100.00;100888.72;6290641;28;20055;-88
2023/03/20 09:12:48;;;;;;;19.70;10.93;;;;;;;9.75;100.00;100887.41;6293039;28;20033;-87
2023/03/20 09:15:51;;;;;;;19.50;11.32;;;;;;;9.73;100.00;100891.84;6287787;28;20048;-87
2023/03/20 09:18:53;;;;;;;22.25;11.68;;;;;;;9.69;100.00;100893.03;6295866;28;20170;-87
2023/03/20 09:21:55;;;;;;;19.67;11.55;;;;;;;9.65;100.00;100894.97;6292090;28;20032;-87
2023/03/20 09:24:56;;;;;;;21.75;11.18;;;;;;;9.62;100.00;100894.38;6287101;28;20560;-87
2023/03/20 09:27:58;;;;;;;24.45;12.05;;;;;;;9.77;100.00;100897.66;6289155;28;20040;-87
2023/03/20 09:31:00;;;;;;;23.75;12.50;;;;;;;9.94;100.00;100894.72;6279324;28;20154;-88
2023/03/20 09:34:02;;;;;;;22.95;11.68;;;;;;;9.89;100.00;100889.88;6288410;28;20047;-87
2023/03/20 09:37:05;;;;;;;22.58;11.70;;;;;;;9.86;100.00;100897.84;6299662;28;20072;-87
2023/03/20 09:40:08;;;;;;;23.80;11.70;;;;;;;10.00;100.00;100902.03;6290158;28;20047;-88
2023/03/20 09:43:18;;;;;;;20.75;10.48;;;;;;;10.13;100.00;100899.41;6296430;28;20093;-88
2023/03/20 09:46:48;;;;;;;20.33;10.45;;;;;;;10.43;100.00;100905.94;6290271;28;20041;-88
2023/03/20 09:50:13;;;;;;;18.98;9.52;;;;;;;10.45;100.00;100902.28;6271945;28;20588;-88
2023/03/20 09:53:46;;;;;;;16.63;9.40;;;;;;;10.49;100.00;100900.31;6289466;28;20538;-88
2023/03/20 09:56:50;;;;;;;18.23;9.52;;;;;;;10.70;100.00;100905.69;6298072;28;20605;-88
2023/03/20 10:00:04;;;;;;;16.15;9.15;;;;;;;10.94;100.00;100901.28;6287231;28;20494;-88
2023/03/20 10:03:18;;;;;;;16.05;8.40;;;;;;;11.04;100.00;100898.84;6288221;28;20480;-88
2023/03/20 10:06:20;;;;;;;13.10;7.80;;;;;;;11.09;100.00;100898.50;6288788;28;20155;-88
2023/03/20 10:09:25;;;;;;;11.75;7.00;;;;;;;11.09;100.00;100903.69;6288175;28;20090;-88
2023/03/20 10:12:35;;;;;;;12.75;7.22;;;;;;;10.85;100.00;100909.72;6291999;28;20041;-87
2023/03/20 10:16:06;;;;;;;11.82;6.65;;;;;;;10.76;100.00;100898.31;6288917;28;20047;-88
2023/03/20 10:19:27;;;;;;;;;;;;;;;10.54;100.00;100898.22;6286206;28;20041;-88
2023/03/20 10:22:34;;;;;;;12.75;7.00;;;;;;;10.53;100.00;100902.59;6285831;28;19939;-88
2023/03/20 10:25:41;;;;;;;12.05;6.25;;;;;;;10.74;100.00;100895.00;6289506;28;20045;-88
2023/03/20 10:28:56;;;;;;;9.77;5.03;;;;;;;10.91;100.00;100906.69;6288740;28;20048;-88
2023/03/20 10:32:23;;;;;;;10.10;5.50;;;;;;;10.72;100.00;100906.41;6287950;28;20494;-88
2023/03/20 10:36:03;;;;;;;9.15;4.85;;;;;;;10.83;100.00;100903.88;6286515;28;20040;-88
2023/03/20 10:39:25;;;;;;;9.10;4.75;;;;;;;10.58;100.00;100894.47;6278646;28;20157;-88
2023/03/20 10:42:31;;;;;;;8.65;5.10;;;;;;;10.64;100.00;100899.22;6289481;28;20596;-88
2023/03/20 10:45:51;;;;;;;9.40;5.25;;;;;;;10.89;100.00;100900.00;6284521;28;20113;-88
2023/03/20 10:49:03;;;;;;;8.27;4.85;;;;;;;10.89;100.00;100894.81;6286891;28;20162;-88
2023/03/20 10:52:12;;;;;;;8.18;4.45;;;;;;;10.93;100.00;100894.47;6287951;28;20040;-88
2023/03/20 10:55:27;;;;;;;8.68;4.80;;;;;;;10.99;100.00;100890.59;6287859;28;20442;-88
2023/03/20 10:58:36;;;;;;;11.05;5.57;;;;;;;11.10;100.00;100898.38;6281091;28;20577;-88
2023/03/20 11:01:37;;;;;;;11.02;5.20;;;;;;;11.52;100.00;100887.44;6285084;28;20529;-88
2023/03/20 11:04:40;;;;;;;10.68;5.63;;;;;;;11.74;100.00;100887.44;6284410;28;20479;-88
2023/03/20 11:07:42;;;;;;;10.27;5.32;;;;;;;11.90;100.00;100888.84;6287899;28;20052;-88
2023/03/20 11:10:45;;;;;;;9.15;5.10;;;;;;;12.11;100.00;100869.00;6281202;28;20062;-88
2023/03/20 11:13:48;;;;;;;7.57;5.22;;;;;;;11.94;100.00;100870.31;6286114;28;20051;-88
2023/03/20 11:16:52;;;;;;;7.85;5.15;;;;;;;12.02;100.00;100867.97;6287580;28;20044;-88
2023/03/20 11:20:03;;;;;;;8.55;5.55;;;;;;;12.18;100.00;100871.94;6287226;28;20048;-88
2023/03/20 11:23:07;;;;;;;8.77;4.80;;;;;;;12.02;100.00;100862.78;6281614;28;20068;-88
2023/03/20 11:26:15;;;;;;;8.98;5.03;;;;;;;11.93;100.00;100855.72;6282620;28;20048;-88
2023/03/20 11:29:34;;;;;;;7.32;4.93;;;;;;;12.08;100.00;100869.25;6306542;28;20043;-88
2023/03/20 11:32:47;;;;;;;8.90;5.25;;;;;;;11.65;100.00;100869.97;6287853;28;20044;-88
2023/03/20 11:35:54;;;;;;;11.88;5.80;;;;;;;11.37;100.00;100856.56;6285681;28;20045;-88
2023/03/20 11:39:26;;;;;;;8.13;5.95;;;;;;;11.07;100.00;100859.75;6285758;28;20517;-88
2023/03/20 11:42:29;;;;;;;8.82;5.38;;;;;;;11.13;100.00;100853.25;6284243;28;20040;-88
2023/03/20 11:45:40;;;;;;;9.27;5.28;;;;;;;11.06;100.00;100862.47;6294458;28;20053;-88
2023/03/20 11:48:44;;;;;;;7.15;5.30;;;;;;;11.18;100.00;100846.00;6287047;28;20131;-88
2023/03/20 11:51:46;;;;;;;7.25;5.20;;;;;;;11.36;100.00;100851.53;6286047;28;20044;-87
2023/03/20 11:55:05;;;;;;;7.55;5.32;;;;;;;11.33;100.00;100855.19;6293288;28;20052;-87
2023/03/20 11:58:15;;;;;;;9.88;6.70;;;;;;;11.26;100.00;100835.03;6286594;28;20044;-88
2023/03/20 12:01:20;;;;;;;10.13;7.03;;;;;;;11.44;100.00;100833.59;6290470;28;20070;-87
2023/03/20 12:04:31;;;;;;;8.80;6.43;;;;;;;11.76;100.00;100825.91;6288657;28;20048;-88
2023/03/20 12:07:36;;;;;;;10.18;7.70;;;;;;;11.80;100.00;100819.53;6285267;28;20479;-88
2023/03/20 12:10:43;;;;;;;9.38;7.72;;;;;;;12.02;100.00;100821.28;6284737;28;20193;-88
2023/03/20 12:13:48;;;;;;;11.80;7.80;;;;;;;12.04;100.00;100821.13;6288420;28;20052;-88
2023/03/20 12:17:04;;;;;;;11.38;8.45;;;;;;;12.02;100.00;100820.41;6287243;28;20551;-88
2023/03/20 12:20:19;;;;;;;10.40;7.90;;;;;;;11.75;100.00;100829.44;6290557;28;20056;-88
2023/03/20 12:23:42;;;;;;;13.30;8.57;;;;;;;11.82;100.00;100825.41;6284244;28;20044;-88
2023/03/20 12:27:15;;;;;;;10.75;9.65;;;;;;;11.87;100.00;100819.06;6285917;28;20370;-88
2023/03/20 12:30:44;;;;;;;12.80;9.52;;;;;;;12.02;100.00;100829.06;6286287;28;20033;-88
2023/03/20 12:33:53;;;;;;;12.43;9.90;;;;;;;12.07;100.00;100829.50;6277261;28;20052;-88
2023/03/20 12:37:01;;;;;;;14.63;10.80;;;;;;;11.63;100.00;100830.41;6283344;28;20112;-88
2023/03/20 12:40:03;;;;;;;14.82;11.48;;;;;;;11.39;100.00;100820.19;6291238;28;20052;-87
2023/03/20 12:43:14;;;;;;;16.25;11.32;;;;;;;11.46;100.00;100823.13;6296518;28;20208;-87
2023/03/20 12:46:40;;;;;;;11.52;10.15;;;;;;;11.30;100.00;100832.06;6284002;28;20041;-87
2023/03/20 12:50:04;;;;;;;13.88;9.80;;;;;;;11.25;100.00;100823.81;6279506;28;20126;-87
2023/03/20 12:53:25;;;;;;;14.05;9.88;;;;;;;11.38;100.00;100827.13;6284547;28;20049;-87
2023/03/20 12:56:53;;;;;;;12.63;10.07;;;;;;;11.21;100.00;100820.66;6284813;28;20394;-88
2023/03/20 13:00:17;;;;;;;13.05;10.80;;;;;;;11.37;100.00;100820.28;6284045;28;20049;-88
2023/03/20 13:03:44;;;;;;;12.23;10.30;;;;;;;11.62;100.00;100815.78;6285454;28;20114;-88
2023/03/20 13:07:17;;;;;;;11.40;10.05;;;;;;;11.98;100.00;100814.66;6286629;28;20080;-88
2023/03/20 13:10:20;;;;;;;13.40;10.85;;;;;;;12.10;100.00;100794.69;6294694;28;20043;-88
2023/03/20 13:13:36;;;;;;;12.43;11.15;;;;;;;12.11;100.00;100798.13;6287189;28;20040;-88
2023/03/20 13:16:44;;;;;;;11.93;10.55;;;;;;;12.73;100.00;100802.50;6284223;28;20040;-88
2023/03/20 13:20:18;;;;;;;13.20;10.50;;;;;;;12.71;100.00;100792.22;6285054;28;20185;-88
2023/03/20 13:23:40;;;;;;;11.25;9.80;;;;;;;12.38;100.00;100787.25;6287783;28;20441;-88
2023/03/20 13:27:04;;;;;;;12.23;10.00;;;;;;;12.19;100.00;100788.75;6286040;28;20427;-88
2023/03/20 13:30:39;;;;;;;12.27;10.02;;;;;;;11.98;100.00;100786.13;6279526;28;20628;-88
2023/03/20 13:34:09;;;;;;;12.02;10.30;;;;;;;12.02;100.00;100778.91;6284963;28;20068;-88
2023/03/20 13:37:39;;;;;;;14.18;9.68;;;;;;;12.14;100.00;100784.88;6285054;28;20079;-88
2023/03/20 13:40:44;;;;;;;10.30;8.52;;;;;;;12.12;100.00;100785.00;6281960;28;20820;-88
2023/03/20 13:43:53;;;;;;;11.32;9.23;;;;;;;11.97;100.00;100784.47;6281287;28;20520;-88
2023/03/20 13:47:25;;;;;;;9.88;8.88;;;;;;;12.01;100.00;100777.28;6285023;28;20045;-88
2023/03/20 13:50:42;;;;;;;11.00;8.88;;;;;;;11.83;100.00;100780.38;6270771;28;20163;-88
2023/03/20 13:54:17;;;;;;;11.05;9.35;;;;;;;11.69;100.00;100785.84;6261037;28;20052;-88
2023/03/20 13:57:29;;;;;;;12.02;9.23;;;;;;;11.77;100.00;100778.25;6220706;28;20049;-88
2023/03/20 14:01:02;;;;;;;10.43;9.43;;;;;;;11.73;100.00;100769.09;6197763;28;20061;-88
2023/03/20 14:04:11;;;;;;;9.48;8.38;;;;;;;11.85;100.00;100767.28;6207176;28;20415;-88
2023/03/20 14:07:32;;;;;;;8.82;8.00;;;;;;;11.57;100.00;100764.28;6209949;28;20065;-88
2023/03/20 14:10:35;;;;;;;10.27;9.27;;;;;;;11.52;100.00;100771.59;6216615;28;20528;-88
2023/03/20 14:13:38;;;;;;;11.10;9.27;;;;;;;11.41;100.00;100759.50;6191522;28;20082;-88
2023/03/20 14:16:41;;;;;;;14.15;8.95;;;;;;;11.54;100.00;100763.72;6208942;28;20073;-88
2023/03/20 14:19:44;;;;;;;12.00;10.70;;;;;;;11.46;100.00;100776.47;6208691;28;20194;-88
2023/03/20 14:22:47;;;;;;;14.88;10.65;;;;;;;11.13;100.00;100768.63;6228183;28;20050;-88
2023/03/20 14:25:53;;;;;;;14.13;11.18;;;;;;;11.19;100.00;100775.06;6209705;28;20057;-88
2023/03/20 14:29:20;;;;;;;14.10;10.32;;;;;;;11.24;100.00;100765.19;6225549;28;20037;-88